sensor_id;sensor_type;location;lat;lon;timestamp;P1;durP1;ratioP1;P2;durP2;ratioP2
15273;SDS011;7738;49.532;11.156;2023-10-13T00:00:30;20.42;;;10.80;;
15273;SDS011;7738;49.532;11.156;2023-10-13T00:03:04;16.52;;;9.60;;
15273;SDS011;7738;49.532;11.156;2023-10-13T00:05:42;21.23;;;10.38;;
15273;SDS011;7738;49.532;11.156;2023-10-13T00:08:16;18.38;;;10.18;;
15273;SDS011;7738;49.532;11.156;2023-10-13T00:10:47;21.03;;;10.97;;
15273;SDS011;7738;49.532;11.156;2023-10-13T00:13:17;16.08;;;9.10;;
15273;SDS011;7738;49.532;11.156;2023-10-13T00:15:48;18.67;;;10.23;;
15273;SDS011;7738;49.532;11.156;2023-10-13T00:18:24;16.40;;;10.10;;
15273;SDS011;7738;49.532;11.156;2023-10-13T00:21:00;14.45;;;9.48;;
15273;SDS011;7738;49.532;11.156;2023-10-13T00:23:42;16.80;;;9.55;;
15273;SDS011;7738;49.532;11.156;2023-10-13T00:26:20;13.80;;;9.68;;
15273;SDS011;7738;49.532;11.156;2023-10-13T00:28:58;14.75;;;9.98;;
15273;SDS011;7738;49.532;11.156;2023-10-13T00:31:36;24.30;;;11.55;;
15273;SDS011;7738;49.532;11.156;2023-10-13T00:34:10;16.85;;;9.93;;
15273;SDS011;7738;49.532;11.156;2023-10-13T00:36:52;17.88;;;10.25;;
15273;SDS011;7738;49.532;11.156;2023-10-13T00:39:37;17.77;;;10.27;;
15273;SDS011;7738;49.532;11.156;2023-10-13T00:42:12;15.30;;;9.93;;
15273;SDS011;7738;49.532;11.156;2023-10-13T00:44:52;16.17;;;9.32;;
15273;SDS011;7738;49.532;11.156;2023-10-13T00:47:21;12.85;;;9.35;;
15273;SDS011;7738;49.532;11.156;2023-10-13T00:50:00;16.95;;;9.38;;
15273;SDS011;7738;49.532;11.156;2023-10-13T00:52:28;14.77;;;9.95;;
15273;SDS011;7738;49.532;11.156;2023-10-13T00:55:02;17.50;;;10.00;;
15273;SDS011;7738;49.532;11.156;2023-10-13T00:57:31;13.77;;;9.57;;
15273;SDS011;7738;49.532;11.156;2023-10-13T01:00:04;15.00;;;9.73;;
15273;SDS011;7738;49.532;11.156;2023-10-13T01:02:44;15.00;;;8.55;;
15273;SDS011;7738;49.532;11.156;2023-10-13T01:05:23;16.80;;;9.38;;
15273;SDS011;7738;49.532;11.156;2023-10-13T01:07:51;18.42;;;9.45;;
15273;SDS011;7738;49.532;11.156;2023-10-13T01:10:25;16.05;;;8.93;;
15273;SDS011;7738;49.532;11.156;2023-10-13T01:12:56;17.08;;;9.57;;
15273;SDS011;7738;49.532;11.156;2023-10-13T01:15:29;12.88;;;9.75;;
15273;SDS011;7738;49.532;11.156;2023-10-13T01:18:06;11.85;;;8.90;;
15273;SDS011;7738;49.532;11.156;2023-10-13T01:20:41;14.30;;;9.70;;
15273;SDS011;7738;49.532;11.156;2023-10-13T01:23:14;13.30;;;8.95;;
15273;SDS011;7738;49.532;11.156;2023-10-13T01:25:51;16.67;;;9.07;;
15273;SDS011;7738;49.532;11.156;2023-10-13T01:28:21;19.73;;;8.70;;
15273;SDS011;7738;49.532;11.156;2023-10-13T01:30:51;15.73;;;8.48;;
15273;SDS011;7738;49.532;11.156;2023-10-13T01:33:20;18.83;;;8.32;;
15273;SDS011;7738;49.532;11.156;2023-10-13T01:35:54;13.45;;;8.60;;
15273;SDS011;7738;49.532;11.156;2023-10-13T01:38:28;16.23;;;8.32;;
15273;SDS011;7738;49.532;11.156;2023-10-13T01:41:00;18.98;;;9.15;;
15273;SDS011;7738;49.532;11.156;2023-10-13T01:43:31;19.58;;;9.07;;
15273;SDS011;7738;49.532;11.156;2023-10-13T01:46:02;12.20;;;7.43;;
15273;SDS011;7738;49.532;11.156;2023-10-13T01:48:30;14.43;;;7.28;;
15273;SDS011;7738;49.532;11.156;2023-10-13T01:51:05;15.50;;;8.40;;
15273;SDS011;7738;49.532;11.156;2023-10-13T01:53:39;13.30;;;8.18;;
15273;SDS011;7738;49.532;11.156;2023-10-13T01:58:38;14.20;;;8.43;;
15273;SDS011;7738;49.532;11.156;2023-10-13T02:01:14;11.60;;;7.93;;
15273;SDS011;7738;49.532;11.156;2023-10-13T02:03:54;17.65;;;7.85;;
15273;SDS011;7738;49.532;11.156;2023-10-13T02:06:31;14.32;;;8.27;;
15273;SDS011;7738;49.532;11.156;2023-10-13T02:09:03;13.55;;;8.10;;
15273;SDS011;7738;49.532;11.156;2023-10-13T02:11:43;12.57;;;7.72;;
15273;SDS011;7738;49.532;11.156;2023-10-13T02:14:12;14.90;;;7.68;;
15273;SDS011;7738;49.532;11.156;2023-10-13T02:16:48;15.20;;;8.30;;
15273;SDS011;7738;49.532;11.156;2023-10-13T02:19:17;16.55;;;8.15;;
15273;SDS011;7738;49.532;11.156;2023-10-13T02:21:49;22.55;;;8.40;;
15273;SDS011;7738;49.532;11.156;2023-10-13T02:24:28;14.85;;;8.20;;
15273;SDS011;7738;49.532;11.156;2023-10-13T02:26:56;12.50;;;7.47;;
15273;SDS011;7738;49.532;11.156;2023-10-13T02:29:31;14.68;;;6.95;;
15273;SDS011;7738;49.532;11.156;2023-10-13T02:32:05;16.92;;;7.57;;
15273;SDS011;7738;49.532;11.156;2023-10-13T02:34:45;16.50;;;7.95;;
15273;SDS011;7738;49.532;11.156;2023-10-13T02:37:13;15.25;;;7.88;;
15273;SDS011;7738;49.532;11.156;2023-10-13T02:39:48;14.57;;;8.07;;
15273;SDS011;7738;49.532;11.156;2023-10-13T02:42:16;11.68;;;7.88;;
15273;SDS011;7738;49.532;11.156;2023-10-13T02:44:50;13.55;;;8.70;;
15273;SDS011;7738;49.532;11.156;2023-10-13T02:47:17;17.30;;;8.10;;
15273;SDS011;7738;49.532;11.156;2023-10-13T02:49:50;15.30;;;9.23;;
15273;SDS011;7738;49.532;11.156;2023-10-13T02:52:18;14.25;;;8.52;;
15273;SDS011;7738;49.532;11.156;2023-10-13T02:54:54;13.93;;;8.65;;
15273;SDS011;7738;49.532;11.156;2023-10-13T02:57:22;13.35;;;8.02;;
15273;SDS011;7738;49.532;11.156;2023-10-13T02:59:53;19.05;;;7.68;;
15273;SDS011;7738;49.532;11.156;2023-10-13T03:02:24;18.63;;;8.95;;
15273;SDS011;7738;49.532;11.156;2023-10-13T03:04:57;16.38;;;7.28;;
15273;SDS011;7738;49.532;11.156;2023-10-13T03:07:26;14.98;;;7.88;;
15273;SDS011;7738;49.532;11.156;2023-10-13T03:10:00;17.17;;;8.60;;
15273;SDS011;7738;49.532;11.156;2023-10-13T03:12:37;14.25;;;8.00;;
15273;SDS011;7738;49.532;11.156;2023-10-13T03:15:08;10.95;;;7.43;;
15273;SDS011;7738;49.532;11.156;2023-10-13T03:17:40;14.73;;;7.03;;
15273;SDS011;7738;49.532;11.156;2023-10-13T03:20:14;12.88;;;8.07;;
15273;SDS011;7738;49.532;11.156;2023-10-13T03:22:52;15.07;;;8.20;;
15273;SDS011;7738;49.532;11.156;2023-10-13T03:25:22;17.45;;;9.38;;
15273;SDS011;7738;49.532;11.156;2023-10-13T03:27:56;15.30;;;8.75;;
15273;SDS011;7738;49.532;11.156;2023-10-13T03:30:34;13.00;;;8.15;;
15273;SDS011;7738;49.532;11.156;2023-10-13T03:33:03;12.30;;;7.20;;
15273;SDS011;7738;49.532;11.156;2023-10-13T03:38:05;13.55;;;7.70;;
15273;SDS011;7738;49.532;11.156;2023-10-13T03:40:46;12.30;;;7.97;;
15273;SDS011;7738;49.532;11.156;2023-10-13T03:43:23;11.30;;;7.85;;
15273;SDS011;7738;49.532;11.156;2023-10-13T03:45:56;12.30;;;7.80;;
15273;SDS011;7738;49.532;11.156;2023-10-13T03:48:35;11.18;;;7.97;;
15273;SDS011;7738;49.532;11.156;2023-10-13T03:51:18;9.77;;;7.47;;
15273;SDS011;7738;49.532;11.156;2023-10-13T03:53:58;10.63;;;7.30;;
15273;SDS011;7738;49.532;11.156;2023-10-13T03:56:37;16.42;;;8.88;;
15273;SDS011;7738;49.532;11.156;2023-10-13T03:59:11;15.60;;;8.30;;
15273;SDS011;7738;49.532;11.156;2023-10-13T04:01:49;12.75;;;7.53;;
15273;SDS011;7738;49.532;11.156;2023-10-13T04:04:30;15.30;;;9.18;;
15273;SDS011;7738;49.532;11.156;2023-10-13T04:07:15;14.57;;;7.88;;
15273;SDS011;7738;49.532;11.156;2023-10-13T04:09:58;13.98;;;8.07;;
15273;SDS011;7738;49.532;11.156;2023-10-13T04:13:11;15.63;;;6.90;;
15273;SDS011;7738;49.532;11.156;2023-10-13T04:15:54;10.30;;;6.45;;
15273;SDS011;7738;49.532;11.156;2023-10-13T04:19:02;12.52;;;6.90;;
15273;SDS011;7738;49.532;11.156;2023-10-13T04:21:47;18.20;;;7.75;;
15273;SDS011;7738;49.532;11.156;2023-10-13T04:24:41;15.38;;;6.28;;
15273;SDS011;7738;49.532;11.156;2023-10-13T04:27:23;14.80;;;7.53;;
15273;SDS011;7738;49.532;11.156;2023-10-13T04:30:23;19.83;;;7.40;;
15273;SDS011;7738;49.532;11.156;2023-10-13T04:33:14;12.82;;;7.20;;
15273;SDS011;7738;49.532;11.156;2023-10-13T04:36:00;13.18;;;6.55;;
15273;SDS011;7738;49.532;11.156;2023-10-13T04:38:40;11.40;;;5.57;;
15273;SDS011;7738;49.532;11.156;2023-10-13T04:41:24;9.38;;;7.30;;
15273;SDS011;7738;49.532;11.156;2023-10-13T04:43:58;11.88;;;6.45;;
15273;SDS011;7738;49.532;11.156;2023-10-13T04:46:56;14.73;;;6.15;;
15273;SDS011;7738;49.532;11.156;2023-10-13T04:49:45;8.73;;;6.60;;
15273;SDS011;7738;49.532;11.156;2023-10-13T04:52:25;15.05;;;7.07;;
15273;SDS011;7738;49.532;11.156;2023-10-13T04:55:17;15.05;;;7.18;;
15273;SDS011;7738;49.532;11.156;2023-10-13T04:58:15;14.00;;;6.72;;
15273;SDS011;7738;49.532;11.156;2023-10-13T05:01:03;13.35;;;6.68;;
15273;SDS011;7738;49.532;11.156;2023-10-13T05:03:49;9.80;;;6.07;;
15273;SDS011;7738;49.532;11.156;2023-10-13T05:06:35;6.82;;;5.00;;
15273;SDS011;7738;49.532;11.156;2023-10-13T05:09:21;14.18;;;6.40;;
15273;SDS011;7738;49.532;11.156;2023-10-13T05:12:03;11.27;;;6.88;;
15273;SDS011;7738;49.532;11.156;2023-10-13T05:14:46;10.00;;;5.97;;
15273;SDS011;7738;49.532;11.156;2023-10-13T05:17:31;9.25;;;5.90;;
15273;SDS011;7738;49.532;11.156;2023-10-13T05:20:16;11.32;;;5.75;;
15273;SDS011;7738;49.532;11.156;2023-10-13T05:22:59;8.82;;;4.97;;
15273;SDS011;7738;49.532;11.156;2023-10-13T05:25:42;14.65;;;5.85;;
15273;SDS011;7738;49.532;11.156;2023-10-13T05:28:25;8.48;;;5.85;;
15273;SDS011;7738;49.532;11.156;2023-10-13T05:31:07;10.57;;;5.28;;
15273;SDS011;7738;49.532;11.156;2023-10-13T05:33:50;13.23;;;5.38;;
15273;SDS011;7738;49.532;11.156;2023-10-13T05:36:36;11.85;;;6.10;;
15273;SDS011;7738;49.532;11.156;2023-10-13T05:39:18;12.25;;;5.63;;
15273;SDS011;7738;49.532;11.156;2023-10-13T05:42:01;11.98;;;6.03;;
15273;SDS011;7738;49.532;11.156;2023-10-13T05:44:44;6.85;;;4.72;;
15273;SDS011;7738;49.532;11.156;2023-10-13T05:47:23;8.88;;;5.03;;
15273;SDS011;7738;49.532;11.156;2023-10-13T05:50:06;13.85;;;6.55;;
15273;SDS011;7738;49.532;11.156;2023-10-13T05:52:58;9.63;;;5.18;;
15273;SDS011;7738;49.532;11.156;2023-10-13T05:55:41;8.18;;;5.45;;
15273;SDS011;7738;49.532;11.156;2023-10-13T05:58:23;10.55;;;5.50;;
15273;SDS011;7738;49.532;11.156;2023-10-13T06:01:06;12.15;;;5.30;;
15273;SDS011;7738;49.532;11.156;2023-10-13T06:03:54;8.38;;;4.50;;
15273;SDS011;7738;49.532;11.156;2023-10-13T06:06:37;7.03;;;4.90;;
15273;SDS011;7738;49.532;11.156;2023-10-13T06:09:22;7.53;;;5.25;;
15273;SDS011;7738;49.532;11.156;2023-10-13T06:12:08;8.40;;;4.85;;
15273;SDS011;7738;49.532;11.156;2023-10-13T06:14:50;10.57;;;5.13;;
15273;SDS011;7738;49.532;11.156;2023-10-13T06:17:33;9.73;;;5.28;;
15273;SDS011;7738;49.532;11.156;2023-10-13T06:20:16;14.27;;;5.22;;
15273;SDS011;7738;49.532;11.156;2023-10-13T06:22:59;15.27;;;5.55;;
15273;SDS011;7738;49.532;11.156;2023-10-13T06:25:49;9.65;;;5.32;;
15273;SDS011;7738;49.532;11.156;2023-10-13T06:28:32;11.52;;;4.65;;
15273;SDS011;7738;49.532;11.156;2023-10-13T06:31:13;7.07;;;3.92;;
15273;SDS011;7738;49.532;11.156;2023-10-13T06:33:53;12.15;;;5.15;;
15273;SDS011;7738;49.532;11.156;2023-10-13T06:36:24;11.43;;;4.68;;
15273;SDS011;7738;49.532;11.156;2023-10-13T06:38:54;10.68;;;4.13;;
15273;SDS011;7738;49.532;11.156;2023-10-13T06:41:47;6.32;;;4.43;;
15273;SDS011;7738;49.532;11.156;2023-10-13T06:44:18;11.93;;;4.70;;
15273;SDS011;7738;49.532;11.156;2023-10-13T06:46:51;7.77;;;4.07;;
15273;SDS011;7738;49.532;11.156;2023-10-13T06:49:21;11.45;;;4.95;;
15273;SDS011;7738;49.532;11.156;2023-10-13T06:51:51;13.57;;;4.93;;
15273;SDS011;7738;49.532;11.156;2023-10-13T06:54:27;12.60;;;4.97;;
15273;SDS011;7738;49.532;11.156;2023-10-13T06:57:03;8.57;;;5.05;;
15273;SDS011;7738;49.532;11.156;2023-10-13T06:59:33;7.05;;;4.65;;
15273;SDS011;7738;49.532;11.156;2023-10-13T07:02:06;9.55;;;4.47;;
15273;SDS011;7738;49.532;11.156;2023-10-13T07:04:54;11.35;;;4.25;;
15273;SDS011;7738;49.532;11.156;2023-10-13T07:07:35;8.07;;;4.47;;
15273;SDS011;7738;49.532;11.156;2023-10-13T07:10:07;7.30;;;4.28;;
15273;SDS011;7738;49.532;11.156;2023-10-13T07:12:41;14.15;;;4.68;;
15273;SDS011;7738;49.532;11.156;2023-10-13T07:15:12;9.15;;;4.18;;
15273;SDS011;7738;49.532;11.156;2023-10-13T07:17:54;11.40;;;4.38;;
15273;SDS011;7738;49.532;11.156;2023-10-13T07:20:26;8.52;;;4.18;;
15273;SDS011;7738;49.532;11.156;2023-10-13T07:23:03;6.15;;;4.13;;
15273;SDS011;7738;49.532;11.156;2023-10-13T07:25:35;10.18;;;4.97;;
15273;SDS011;7738;49.532;11.156;2023-10-13T07:28:10;7.45;;;3.72;;
15273;SDS011;7738;49.532;11.156;2023-10-13T07:30:42;10.82;;;3.70;;
15273;SDS011;7738;49.532;11.156;2023-10-13T07:33:16;9.48;;;5.00;;
15273;SDS011;7738;49.532;11.156;2023-10-13T07:35:47;5.53;;;3.08;;
15273;SDS011;7738;49.532;11.156;2023-10-13T07:38:18;6.63;;;3.65;;
15273;SDS011;7738;49.532;11.156;2023-10-13T07:40:49;10.23;;;4.28;;
15273;SDS011;7738;49.532;11.156;2023-10-13T07:43:22;8.73;;;4.10;;
15273;SDS011;7738;49.532;11.156;2023-10-13T07:45:54;6.68;;;3.47;;
15273;SDS011;7738;49.532;11.156;2023-10-13T07:48:26;7.50;;;3.53;;
15273;SDS011;7738;49.532;11.156;2023-10-13T07:51:00;5.35;;;3.35;;
15273;SDS011;7738;49.532;11.156;2023-10-13T07:53:31;5.95;;;3.60;;
15273;SDS011;7738;49.532;11.156;2023-10-13T07:56:07;8.20;;;3.30;;
15273;SDS011;7738;49.532;11.156;2023-10-13T07:58:41;8.63;;;3.65;;
15273;SDS011;7738;49.532;11.156;2023-10-13T08:01:19;6.40;;;3.00;;
15273;SDS011;7738;49.532;11.156;2023-10-13T08:03:52;9.23;;;3.30;;
15273;SDS011;7738;49.532;11.156;2023-10-13T08:06:31;5.50;;;3.17;;
15273;SDS011;7738;49.532;11.156;2023-10-13T08:09:04;4.60;;;3.15;;
15273;SDS011;7738;49.532;11.156;2023-10-13T08:11:56;8.27;;;3.85;;
15273;SDS011;7738;49.532;11.156;2023-10-13T08:14:29;7.00;;;3.17;;
15273;SDS011;7738;49.532;11.156;2023-10-13T08:17:05;7.72;;;2.97;;
15273;SDS011;7738;49.532;11.156;2023-10-13T08:19:37;7.95;;;3.17;;
15273;SDS011;7738;49.532;11.156;2023-10-13T08:22:13;5.63;;;3.22;;
15273;SDS011;7738;49.532;11.156;2023-10-13T08:25:03;12.38;;;3.35;;
15273;SDS011;7738;49.532;11.156;2023-10-13T08:27:46;8.70;;;3.35;;
15273;SDS011;7738;49.532;11.156;2023-10-13T08:30:34;8.75;;;3.88;;
15273;SDS011;7738;49.532;11.156;2023-10-13T08:33:19;7.53;;;3.55;;
15273;SDS011;7738;49.532;11.156;2023-10-13T08:38:53;5.72;;;2.88;;
15273;SDS011;7738;49.532;11.156;2023-10-13T08:41:24;7.97;;;3.30;;
15273;SDS011;7738;49.532;11.156;2023-10-13T08:43:57;6.40;;;2.90;;
15273;SDS011;7738;49.532;11.156;2023-10-13T08:46:39;8.50;;;2.90;;
15273;SDS011;7738;49.532;11.156;2023-10-13T08:49:22;7.43;;;3.53;;
15273;SDS011;7738;49.532;11.156;2023-10-13T08:54:54;6.30;;;2.63;;
15273;SDS011;7738;49.532;11.156;2023-10-13T08:58:02;7.53;;;2.85;;
15273;SDS011;7738;49.532;11.156;2023-10-13T09:00:40;9.75;;;2.92;;
15273;SDS011;7738;49.532;11.156;2023-10-13T09:03:42;5.93;;;3.08;;
15273;SDS011;7738;49.532;11.156;2023-10-13T09:06:12;6.68;;;2.80;;
15273;SDS011;7738;49.532;11.156;2023-10-13T09:08:46;10.27;;;2.72;;
15273;SDS011;7738;49.532;11.156;2023-10-13T09:11:31;4.05;;;2.22;;
15273;SDS011;7738;49.532;11.156;2023-10-13T09:14:16;7.18;;;2.83;;
15273;SDS011;7738;49.532;11.156;2023-10-13T09:17:02;7.05;;;2.75;;
15273;SDS011;7738;49.532;11.156;2023-10-13T09:20:04;7.55;;;2.38;;
15273;SDS011;7738;49.532;11.156;2023-10-13T09:22:51;8.25;;;2.47;;
15273;SDS011;7738;49.532;11.156;2023-10-13T09:25:34;7.60;;;2.55;;
15273;SDS011;7738;49.532;11.156;2023-10-13T09:28:04;8.82;;;3.10;;
15273;SDS011;7738;49.532;11.156;2023-10-13T09:30:46;9.07;;;2.10;;
15273;SDS011;7738;49.532;11.156;2023-10-13T09:33:18;8.80;;;2.58;;
15273;SDS011;7738;49.532;11.156;2023-10-13T09:35:58;6.22;;;2.67;;
15273;SDS011;7738;49.532;11.156;2023-10-13T09:38:27;8.43;;;3.03;;
15273;SDS011;7738;49.532;11.156;2023-10-13T09:40:58;5.35;;;2.50;;
15273;SDS011;7738;49.532;11.156;2023-10-13T09:43:28;8.10;;;2.40;;
15273;SDS011;7738;49.532;11.156;2023-10-13T09:46:00;9.63;;;3.28;;
15273;SDS011;7738;49.532;11.156;2023-10-13T09:48:34;6.22;;;2.75;;
15273;SDS011;7738;49.532;11.156;2023-10-13T09:51:11;4.70;;;2.65;;
15273;SDS011;7738;49.532;11.156;2023-10-13T09:53:47;6.88;;;2.65;;
15273;SDS011;7738;49.532;11.156;2023-10-13T09:56:40;11.10;;;3.53;;
15273;SDS011;7738;49.532;11.156;2023-10-13T09:59:22;8.93;;;3.03;;
15273;SDS011;7738;49.532;11.156;2023-10-13T10:02:01;7.10;;;2.50;;
15273;SDS011;7738;49.532;11.156;2023-10-13T10:04:50;6.22;;;3.00;;
15273;SDS011;7738;49.532;11.156;2023-10-13T10:07:26;7.27;;;2.70;;
15273;SDS011;7738;49.532;11.156;2023-10-13T10:10:00;6.15;;;2.30;;
15273;SDS011;7738;49.532;11.156;2023-10-13T10:12:31;9.30;;;2.53;;
15273;SDS011;7738;49.532;11.156;2023-10-13T10:15:10;7.43;;;2.92;;
15273;SDS011;7738;49.532;11.156;2023-10-13T10:18:01;8.07;;;2.45;;
15273;SDS011;7738;49.532;11.156;2023-10-13T10:20:33;8.68;;;3.13;;
15273;SDS011;7738;49.532;11.156;2023-10-13T10:23:21;6.95;;;2.35;;
15273;SDS011;7738;49.532;11.156;2023-10-13T10:25:55;9.40;;;2.83;;
15273;SDS011;7738;49.532;11.156;2023-10-13T10:28:35;4.45;;;2.63;;
15273;SDS011;7738;49.532;11.156;2023-10-13T10:31:08;5.35;;;3.20;;
15273;SDS011;7738;49.532;11.156;2023-10-13T10:33:39;6.97;;;2.90;;
15273;SDS011;7738;49.532;11.156;2023-10-13T10:36:10;5.57;;;2.45;;
15273;SDS011;7738;49.532;11.156;2023-10-13T10:38:56;8.73;;;2.60;;
15273;SDS011;7738;49.532;11.156;2023-10-13T10:41:31;7.90;;;2.60;;
15273;SDS011;7738;49.532;11.156;2023-10-13T10:44:11;13.43;;;3.55;;
15273;SDS011;7738;49.532;11.156;2023-10-13T10:46:50;8.15;;;1.83;;
15273;SDS011;7738;49.532;11.156;2023-10-13T10:49:28;9.20;;;2.40;;
15273;SDS011;7738;49.532;11.156;2023-10-13T10:51:58;5.18;;;2.45;;
15273;SDS011;7738;49.532;11.156;2023-10-13T10:54:33;3.28;;;1.90;;
15273;SDS011;7738;49.532;11.156;2023-10-13T10:57:11;5.85;;;2.50;;
15273;SDS011;7738;49.532;11.156;2023-10-13T10:59:44;8.40;;;2.35;;
15273;SDS011;7738;49.532;11.156;2023-10-13T11:02:35;6.45;;;2.03;;
15273;SDS011;7738;49.532;11.156;2023-10-13T11:05:06;6.30;;;2.13;;
15273;SDS011;7738;49.532;11.156;2023-10-13T11:07:37;5.00;;;2.60;;
15273;SDS011;7738;49.532;11.156;2023-10-13T11:10:19;7.82;;;1.92;;
15273;SDS011;7738;49.532;11.156;2023-10-13T11:12:55;6.22;;;2.17;;
15273;SDS011;7738;49.532;11.156;2023-10-13T11:18:12;6.40;;;1.98;;
15273;SDS011;7738;49.532;11.156;2023-10-13T11:20:48;8.80;;;2.30;;
15273;SDS011;7738;49.532;11.156;2023-10-13T11:23:21;4.20;;;1.73;;
15273;SDS011;7738;49.532;11.156;2023-10-13T11:25:59;8.65;;;2.15;;
15273;SDS011;7738;49.532;11.156;2023-10-13T11:28:30;5.15;;;1.92;;
15273;SDS011;7738;49.532;11.156;2023-10-13T11:31:01;4.07;;;1.92;;
15273;SDS011;7738;49.532;11.156;2023-10-13T11:33:43;8.35;;;2.75;;
15273;SDS011;7738;49.532;11.156;2023-10-13T11:36:16;5.35;;;1.98;;
15273;SDS011;7738;49.532;11.156;2023-10-13T11:38:50;8.10;;;2.00;;
15273;SDS011;7738;49.532;11.156;2023-10-13T11:41:27;6.60;;;1.60;;
15273;SDS011;7738;49.532;11.156;2023-10-13T11:44:00;6.13;;;2.53;;
15273;SDS011;7738;49.532;11.156;2023-10-13T11:46:39;5.78;;;2.13;;
15273;SDS011;7738;49.532;11.156;2023-10-13T11:49:23;5.95;;;2.47;;
15273;SDS011;7738;49.532;11.156;2023-10-13T11:52:04;14.52;;;2.88;;
15273;SDS011;7738;49.532;11.156;2023-10-13T11:54:52;4.85;;;1.73;;
15273;SDS011;7738;49.532;11.156;2023-10-13T11:57:24;8.07;;;1.70;;
15273;SDS011;7738;49.532;11.156;2023-10-13T11:59:55;7.78;;;1.63;;
15273;SDS011;7738;49.532;11.156;2023-10-13T12:02:45;8.52;;;2.00;;
15273;SDS011;7738;49.532;11.156;2023-10-13T12:05:28;7.15;;;2.13;;
15273;SDS011;7738;49.532;11.156;2023-10-13T12:08:16;5.47;;;1.88;;
15273;SDS011;7738;49.532;11.156;2023-10-13T12:10:59;5.78;;;1.73;;
15273;SDS011;7738;49.532;11.156;2023-10-13T12:13:52;7.97;;;1.90;;
15273;SDS011;7738;49.532;11.156;2023-10-13T12:16:23;6.55;;;1.80;;
15273;SDS011;7738;49.532;11.156;2023-10-13T12:19:01;7.10;;;1.80;;
15273;SDS011;7738;49.532;11.156;2023-10-13T12:21:37;5.40;;;1.55;;
15273;SDS011;7738;49.532;11.156;2023-10-13T12:24:10;5.13;;;1.92;;
15273;SDS011;7738;49.532;11.156;2023-10-13T12:26:49;5.78;;;1.70;;
15273;SDS011;7738;49.532;11.156;2023-10-13T12:29:28;6.97;;;2.67;;
15273;SDS011;7738;49.532;11.156;2023-10-13T12:32:01;7.22;;;1.92;;
15273;SDS011;7738;49.532;11.156;2023-10-13T12:34:36;10.23;;;2.30;;
15273;SDS011;7738;49.532;11.156;2023-10-13T12:37:24;5.40;;;2.08;;
15273;SDS011;7738;49.532;11.156;2023-10-13T12:40:17;5.07;;;1.75;;
15273;SDS011;7738;49.532;11.156;2023-10-13T12:43:00;6.28;;;1.52;;
15273;SDS011;7738;49.532;11.156;2023-10-13T12:45:47;10.02;;;2.42;;
15273;SDS011;7738;49.532;11.156;2023-10-13T12:48:30;4.80;;;1.67;;
15273;SDS011;7738;49.532;11.156;2023-10-13T12:51:14;5.05;;;2.20;;
15273;SDS011;7738;49.532;11.156;2023-10-13T12:54:07;14.93;;;1.95;;
15273;SDS011;7738;49.532;11.156;2023-10-13T12:56:47;4.53;;;1.92;;
15273;SDS011;7738;49.532;11.156;2023-10-13T12:59:23;11.02;;;2.50;;
15273;SDS011;7738;49.532;11.156;2023-10-13T13:01:58;7.95;;;1.60;;
15273;SDS011;7738;49.532;11.156;2023-10-13T13:04:33;7.13;;;2.50;;
15273;SDS011;7738;49.532;11.156;2023-10-13T13:07:10;6.93;;;1.63;;
15273;SDS011;7738;49.532;11.156;2023-10-13T13:09:41;4.28;;;2.25;;
15273;SDS011;7738;49.532;11.156;2023-10-13T13:12:12;8.65;;;3.03;;
15273;SDS011;7738;49.532;11.156;2023-10-13T13:14:43;8.50;;;2.10;;
15273;SDS011;7738;49.532;11.156;2023-10-13T13:17:17;11.90;;;3.67;;
15273;SDS011;7738;49.532;11.156;2023-10-13T13:19:48;5.85;;;1.45;;
15273;SDS011;7738;49.532;11.156;2023-10-13T13:22:18;4.43;;;2.03;;
15273;SDS011;7738;49.532;11.156;2023-10-13T13:24:48;6.28;;;1.73;;
15273;SDS011;7738;49.532;11.156;2023-10-13T13:27:19;6.85;;;1.65;;
15273;SDS011;7738;49.532;11.156;2023-10-13T13:29:51;6.30;;;1.98;;
15273;SDS011;7738;49.532;11.156;2023-10-13T13:32:26;6.53;;;2.00;;
15273;SDS011;7738;49.532;11.156;2023-10-13T13:34:56;3.15;;;1.38;;
15273;SDS011;7738;49.532;11.156;2023-10-13T13:37:31;5.32;;;2.03;;
15273;SDS011;7738;49.532;11.156;2023-10-13T13:40:04;6.35;;;2.20;;
15273;SDS011;7738;49.532;11.156;2023-10-13T13:42:45;6.95;;;1.90;;
15273;SDS011;7738;49.532;11.156;2023-10-13T13:45:15;8.38;;;1.63;;
15273;SDS011;7738;49.532;11.156;2023-10-13T13:47:57;8.13;;;2.40;;
15273;SDS011;7738;49.532;11.156;2023-10-13T13:50:30;7.68;;;1.80;;
15273;SDS011;7738;49.532;11.156;2023-10-13T13:53:06;8.85;;;1.67;;
15273;SDS011;7738;49.532;11.156;2023-10-13T13:55:38;4.88;;;1.98;;
15273;SDS011;7738;49.532;11.156;2023-10-13T13:58:09;5.47;;;1.70;;
15273;SDS011;7738;49.532;11.156;2023-10-13T14:00:39;7.10;;;2.40;;
15273;SDS011;7738;49.532;11.156;2023-10-13T14:03:17;3.13;;;1.50;;
15273;SDS011;7738;49.532;11.156;2023-10-13T14:05:58;6.53;;;1.38;;
15273;SDS011;7738;49.532;11.156;2023-10-13T14:08:30;5.22;;;1.30;;
15273;SDS011;7738;49.532;11.156;2023-10-13T14:11:01;7.07;;;1.73;;
15273;SDS011;7738;49.532;11.156;2023-10-13T14:14:10;7.20;;;1.38;;
15273;SDS011;7738;49.532;11.156;2023-10-13T14:16:39;7.63;;;1.30;;
15273;SDS011;7738;49.532;11.156;2023-10-13T14:19:14;7.07;;;1.70;;
15273;SDS011;7738;49.532;11.156;2023-10-13T14:21:46;3.90;;;1.45;;
15273;SDS011;7738;49.532;11.156;2023-10-13T14:24:20;4.03;;;1.20;;
15273;SDS011;7738;49.532;11.156;2023-10-13T14:26:54;9.85;;;2.03;;
15273;SDS011;7738;49.532;11.156;2023-10-13T14:29:28;11.52;;;1.90;;
15273;SDS011;7738;49.532;11.156;2023-10-13T14:31:59;4.85;;;2.03;;
15273;SDS011;7738;49.532;11.156;2023-10-13T14:34:33;5.65;;;1.58;;
15273;SDS011;7738;49.532;11.156;2023-10-13T14:37:04;6.60;;;1.30;;
15273;SDS011;7738;49.532;11.156;2023-10-13T14:39:34;7.85;;;1.30;;
15273;SDS011;7738;49.532;11.156;2023-10-13T14:42:05;3.55;;;1.50;;
15273;SDS011;7738;49.532;11.156;2023-10-13T14:44:35;5.95;;;1.67;;
15273;SDS011;7738;49.532;11.156;2023-10-13T14:47:06;5.65;;;1.73;;
15273;SDS011;7738;49.532;11.156;2023-10-13T14:49:41;4.47;;;1.23;;
15273;SDS011;7738;49.532;11.156;2023-10-13T14:52:11;6.45;;;1.30;;
15273;SDS011;7738;49.532;11.156;2023-10-13T14:54:44;5.18;;;1.20;;
15273;SDS011;7738;49.532;11.156;2023-10-13T14:57:17;10.10;;;1.98;;
15273;SDS011;7738;49.532;11.156;2023-10-13T14:59:51;6.57;;;1.70;;
15273;SDS011;7738;49.532;11.156;2023-10-13T15:02:22;4.60;;;1.42;;
15273;SDS011;7738;49.532;11.156;2023-10-13T15:04:55;4.13;;;1.67;;
15273;SDS011;7738;49.532;11.156;2023-10-13T15:07:25;5.50;;;1.23;;
15273;SDS011;7738;49.532;11.156;2023-10-13T15:09:55;8.45;;;1.40;;
15273;SDS011;7738;49.532;11.156;2023-10-13T15:12:26;11.70;;;1.58;;
15273;SDS011;7738;49.532;11.156;2023-10-13T15:14:57;8.75;;;1.60;;
15273;SDS011;7738;49.532;11.156;2023-10-13T15:17:28;13.70;;;1.88;;
15273;SDS011;7738;49.532;11.156;2023-10-13T15:20:03;12.60;;;2.28;;
15273;SDS011;7738;49.532;11.156;2023-10-13T15:22:35;8.13;;;1.48;;
15273;SDS011;7738;49.532;11.156;2023-10-13T15:25:06;6.43;;;1.33;;
15273;SDS011;7738;49.532;11.156;2023-10-13T15:27:48;9.90;;;1.60;;
15273;SDS011;7738;49.532;11.156;2023-10-13T15:30:22;9.38;;;1.90;;
15273;SDS011;7738;49.532;11.156;2023-10-13T15:32:57;6.38;;;1.33;;
15273;SDS011;7738;49.532;11.156;2023-10-13T15:35:31;10.27;;;1.65;;
15273;SDS011;7738;49.532;11.156;2023-10-13T15:38:01;5.32;;;1.30;;
15273;SDS011;7738;49.532;11.156;2023-10-13T15:40:33;5.13;;;1.17;;
15273;SDS011;7738;49.532;11.156;2023-10-13T15:43:04;12.93;;;2.20;;
15273;SDS011;7738;49.532;11.156;2023-10-13T15:45:34;5.70;;;2.15;;
15273;SDS011;7738;49.532;11.156;2023-10-13T15:48:09;9.43;;;1.80;;
15273;SDS011;7738;49.532;11.156;2023-10-13T15:50:48;4.43;;;1.08;;
15273;SDS011;7738;49.532;11.156;2023-10-13T15:53:19;4.95;;;1.30;;